Time;durP1;ratioP1;P1;durP2;ratioP2;P2;SDS_P1;SDS_P2;PMS_P1;PMS_P2;Temp;Humidity;BMP_temperature;BMP_pressure;BME280_temperature;BME280_humidity;BME280_pressure;Samples;Min_cycle;Max_cycle;Signal;HPM_P1;HPM_P2
2021/11/30 00:00:08;;;;;;;7.28;3.47;;;;;;;1.14;85.44;99688.16;1747853;82;21097;-88
2021/11/30 00:02:36;;;;;;;6.40;3.65;;;;;;;1.08;85.39;99684.42;1747675;82;21229;-88
2021/11/30 00:05:04;;;;;;;8.13;3.58;;;;;;;1.01;85.25;99684.95;1747963;82;21748;-87
2021/11/30 00:07:31;;;;;;;6.55;3.22;;;;;;;0.92;85.23;99691.50;1747742;82;21046;-87
2021/11/30 00:12:27;;;;;;;9.50;3.87;;;;;;;0.84;85.35;99694.53;1747849;82;21702;-87
2021/11/30 00:14:55;;;;;;;8.60;3.35;;;;;;;0.78;85.32;99698.60;1747904;82;22257;-87
2021/11/30 00:17:22;;;;;;;8.63;3.70;;;;;;;0.71;85.17;99703.05;1747779;82;21746;-87
2021/11/30 00:19:50;;;;;;;6.47;3.08;;;;;;;0.63;85.12;99703.48;1747841;82;21019;-86
2021/11/30 00:22:22;;;;;;;5.25;3.02;;;;;;;0.55;85.08;99705.70;1747826;82;21024;-86
2021/11/30 00:24:49;;;;;;;5.08;2.90;;;;;;;0.49;85.14;99710.56;1747737;82;21067;-88
2021/11/30 00:27:15;;;;;;;4.60;2.60;;;;;;;0.43;85.21;99708.56;1747882;82;21568;-87
2021/11/30 00:29:42;;;;;;;5.30;2.60;;;;;;;0.37;85.19;99717.34;1747811;82;21706;-87
2021/11/30 00:32:09;;;;;;;4.53;3.02;;;;;;;0.31;85.22;99710.16;1747587;82;21597;-88
2021/11/30 00:34:36;;;;;;;4.00;2.75;;;;;;;0.28;85.25;99724.27;1747546;82;21043;-88
2021/11/30 00:37:03;;;;;;;4.75;2.62;;;;;;;0.23;85.26;99730.03;1747049;82;21352;-87
2021/11/30 00:39:30;;;;;;;4.95;2.50;;;;;;;0.20;85.30;99724.27;1747367;82;21042;-87
2021/11/30 00:41:59;;;;;;;5.70;2.70;;;;;;;0.19;85.42;99729.86;1747136;82;21734;-87
2021/11/30 00:44:28;;;;;;;5.55;2.70;;;;;;;0.18;85.36;99733.66;1747231;81;21067;-87
2021/11/30 00:46:56;;;;;;;4.72;2.40;;;;;;;0.13;85.30;99728.27;1746927;82;21074;-86
2021/11/30 00:49:25;;;;;;;3.80;2.77;;;;;;;0.10;85.24;99730.70;1747184;82;21050;-86
2021/11/30 00:51:53;;;;;;;5.58;2.42;;;;;;;0.06;85.21;99733.07;1747571;82;21051;-86
2021/11/30 00:54:20;;;;;;;5.92;2.90;;;;;;;0.03;85.17;99741.95;1747570;82;21770;-87
2021/11/30 00:56:48;;;;;;;8.58;3.10;;;;;;;-0.01;85.12;99739.20;1747341;81;21062;-86
2021/11/30 00:59:15;;;;;;;5.47;2.45;;;;;;;-0.06;85.03;99739.36;1747600;82;21086;-87
2021/11/30 01:01:41;;;;;;;5.00;2.55;;;;;;;-0.09;85.01;99739.64;1747758;82;21071;-87
2021/11/30 01:04:13;;;;;;;7.40;2.95;;;;;;;-0.15;84.93;99729.88;1747934;81;21560;-88
2021/11/30 01:06:37;;;;;;;8.45;3.15;;;;;;;-0.16;84.93;99729.79;1747046;82;22991;-86
2021/11/30 01:09:05;;;;;;;5.00;2.30;;;;;;;-0.18;84.90;99737.88;1747789;82;21600;-88
2021/11/30 01:11:32;;;;;;;6.03;2.77;;;;;;;-0.20;84.86;99738.67;1747916;82;21035;-88
2021/11/30 01:13:58;;;;;;;5.37;2.40;;;;;;;-0.25;84.74;99736.66;1747857;82;21027;-88
2021/11/30 01:16:25;;;;;;;6.33;2.60;;;;;;;-0.27;84.75;99739.58;1747909;82;21078;-88
2021/11/30 01:18:52;;;;;;;4.65;2.50;;;;;;;-0.31;84.72;99734.64;1747920;82;21739;-87
2021/11/30 01:21:20;;;;;;;5.67;2.83;;;;;;;-0.35;84.66;99734.00;1747488;82;21055;-87
2021/11/30 01:23:47;;;;;;;5.45;2.67;;;;;;;-0.40;84.62;99736.34;1747702;82;21042;-87
2021/11/30 01:26:13;;;;;;;5.62;2.95;;;;;;;-0.44;84.63;99738.28;1747872;82;21178;-87
2021/11/30 01:28:40;;;;;;;4.55;2.70;;;;;;;-0.46;84.64;99729.56;1747907;82;21113;-86
2021/11/30 01:31:07;;;;;;;4.33;2.85;;;;;;;-0.48;84.63;99734.18;1747938;82;21774;-88
2021/11/30 01:33:35;;;;;;;3.75;2.70;;;;;;;-0.52;84.62;99733.54;1747691;82;21066;-87
2021/11/30 01:36:05;;;;;;;4.95;2.77;;;;;;;-0.52;84.65;99728.37;1747868;82;21071;-87
2021/11/30 01:38:32;;;;;;;5.22;2.50;;;;;;;-0.55;84.67;99734.24;1747847;82;21086;-88
2021/11/30 01:41:01;;;;;;;6.08;2.70;;;;;;;-0.59;84.59;99730.61;1747745;82;21070;-89
2021/11/30 01:43:37;;;;;;;5.53;2.47;;;;;;;-0.62;84.56;99724.38;1747900;82;21833;-88
2021/11/30 01:46:05;;;;;;;3.15;2.10;;;;;;;-0.65;84.56;99730.30;1746506;81;21043;-87
2021/11/30 01:50:54;;;;;;;5.25;2.42;;;;;;;-0.72;84.55;99739.81;1747698;82;21062;-87
2021/11/30 01:53:21;;;;;;;3.25;2.10;;;;;;;-0.75;84.59;99731.92;1747783;82;21611;-87
2021/11/30 01:55:48;;;;;;;4.20;2.20;;;;;;;-0.78;84.59;99730.45;1748468;82;21734;-88
2021/11/30 01:58:15;;;;;;;3.67;2.20;;;;;;;-0.81;84.67;99723.44;1749288;82;21164;-87
2021/11/30 02:00:43;;;;;;;4.53;2.35;;;;;;;-0.82;84.67;99726.81;1749388;82;21050;-88
2021/11/30 02:03:09;;;;;;;5.28;2.35;;;;;;;-0.84;84.74;99724.55;1749213;82;21556;-87
2021/11/30 02:05:38;;;;;;;3.67;2.08;;;;;;;-0.84;84.79;99721.08;1749075;82;21178;-87
2021/11/30 02:08:05;;;;;;;3.05;2.22;;;;;;;-0.85;84.79;99717.59;1749079;82;21796;-87
2021/11/30 02:10:32;;;;;;;4.15;2.60;;;;;;;-0.83;84.83;99721.55;1748865;82;21046;-88
2021/11/30 02:12:59;;;;;;;4.78;2.90;;;;;;;-0.82;84.81;99722.93;1748855;82;21074;-88
2021/11/30 02:15:27;;;;;;;4.40;2.27;;;;;;;-0.82;84.79;99720.34;1748961;82;21165;-86
2021/11/30 02:17:59;;;;;;;4.85;2.40;;;;;;;-0.81;84.76;99718.64;1749472;82;21082;-86
2021/11/30 02:20:25;;;;;;;3.62;1.90;;;;;;;-0.79;84.79;99717.03;1749588;82;22575;-86
2021/11/30 02:22:56;;;;;;;5.60;2.22;;;;;;;-0.79;84.74;99716.65;1749751;82;21043;-86
2021/11/30 02:25:23;;;;;;;4.85;2.52;;;;;;;-0.77;84.73;99711.53;1749935;82;21563;-87
2021/11/30 02:27:51;;;;;;;4.87;2.27;;;;;;;-0.76;84.67;99714.62;1749864;82;21113;-86
2021/11/30 02:30:19;;;;;;;7.17;2.30;;;;;;;-0.75;84.66;99711.63;1749912;81;21130;-86
2021/11/30 02:32:46;;;;;;;4.12;2.37;;;;;;;-0.73;84.65;99712.59;1749922;82;21775;-86
2021/11/30 02:35:14;;;;;;;5.08;2.50;;;;;;;-0.74;84.64;99705.66;1749770;82;21187;-87
2021/11/30 02:37:50;;;;;;;6.53;2.55;;;;;;;-0.72;84.61;99704.92;1750026;82;21078;-86
2021/11/30 02:40:13;;;;;;;5.22;2.37;;;;;;;-0.73;84.50;99695.41;1748420;81;21132;-89
2021/11/30 02:42:39;;;;;;;8.53;2.87;;;;;;;-0.73;84.46;99695.41;1749979;82;21126;-89
2021/11/30 02:45:07;;;;;;;6.87;3.02;;;;;;;-0.72;84.45;99695.00;1749816;82;21785;-88
2021/11/30 02:47:34;;;;;;;7.12;2.60;;;;;;;-0.74;84.37;99696.20;1749855;82;21552;-88
2021/11/30 02:50:00;;;;;;;8.70;2.80;;;;;;;-0.74;84.34;99691.03;1749875;82;21030;-87
2021/11/30 02:52:28;;;;;;;7.58;2.92;;;;;;;-0.83;84.28;99668.59;1750105;82;21019;-88
2021/11/30 02:54:55;;;;;;;7.20;2.60;;;;;;;-0.74;84.22;99687.58;1749812;82;21529;-88
2021/11/30 02:57:23;;;;;;;7.72;3.15;;;;;;;-0.72;84.24;99693.71;1747761;82;22544;-89
2021/11/30 02:59:51;;;;;;;8.75;3.37;;;;;;;-0.71;84.32;99689.92;1747500;82;21490;-88
2021/11/30 03:02:20;;;;;;;6.85;3.15;;;;;;;-0.67;84.34;99685.80;1747769;82;21039;-88
2021/11/30 03:04:51;;;;;;;6.75;2.95;;;;;;;-0.65;84.30;99676.02;1747696;82;21031;-88
2021/11/30 03:07:22;;;;;;;6.00;2.77;;;;;;;-0.65;84.27;99679.89;1747932;82;21521;-88
2021/11/30 03:09:49;;;;;;;7.92;3.27;;;;;;;-0.61;84.27;99677.95;1747936;82;23359;-89
2021/11/30 03:12:16;;;;;;;4.35;2.52;;;;;;;-0.59;84.20;99670.28;1747856;82;21150;-87
2021/11/30 03:14:42;;;;;;;5.58;3.10;;;;;;;-0.56;84.16;99678.59;1747864;82;21035;-88
2021/11/30 03:17:09;;;;;;;6.55;3.15;;;;;;;-0.55;84.15;99673.50;1748072;82;21011;-90
2021/11/30 03:19:36;;;;;;;5.70;2.95;;;;;;;-0.54;84.13;99668.83;1747991;82;21058;-89
2021/11/30 03:22:04;;;;;;;5.67;2.90;;;;;;;-0.52;84.06;99666.33;1747976;82;22574;-89
2021/11/30 03:24:30;;;;;;;7.35;3.10;;;;;;;-0.52;83.97;99661.16;1747901;81;21086;-90
2021/11/30 03:26:57;;;;;;;6.10;3.10;;;;;;;-0.54;83.88;99654.62;1747890;82;21062;-89
2021/11/30 03:29:24;;;;;;;7.15;3.37;;;;;;;-0.55;83.90;99651.95;1748013;82;21545;-89
2021/11/30 03:34:26;;;;;;;5.40;3.02;;;;;;;-0.56;83.83;99647.56;1748085;82;21977;-90
2021/11/30 03:36:54;;;;;;;9.30;3.00;;;;;;;-0.56;83.81;99647.19;1748090;82;22276;-89
2021/11/30 03:39:23;;;;;;;6.20;3.05;;;;;;;-0.53;83.91;99643.45;1748159;82;21035;-89
2021/11/30 03:41:52;;;;;;;7.35;2.87;;;;;;;-0.52;83.83;99643.06;1747885;81;21548;-87
2021/11/30 03:44:18;;;;;;;5.78;2.52;;;;;;;-0.53;83.77;99637.41;1747923;81;21058;-87
2021/11/30 03:46:45;;;;;;;5.60;2.52;;;;;;;-0.54;83.81;99635.64;1747941;82;21732;-88
2021/11/30 03:49:12;;;;;;;5.25;2.77;;;;;;;-0.54;83.79;99635.23;1748094;82;21058;-88
2021/11/30 03:51:40;;;;;;;6.33;2.92;;;;;;;-0.55;83.79;99634.73;1747987;82;21078;-88
2021/11/30 03:54:06;;;;;;;4.85;2.77;;;;;;;-0.53;83.86;99635.69;1748040;81;21078;-90
2021/11/30 03:56:35;;;;;;;5.58;2.60;;;;;;;-0.54;83.74;99633.94;1745695;81;21059;-88
2021/11/30 03:59:02;;;;;;;5.00;3.30;;;;;;;-0.54;83.76;99633.94;1743152;82;21847;-89
2021/11/30 04:01:28;;;;;;;5.53;3.15;;;;;;;-0.55;83.75;99624.80;1743439;81;21159;-88
2021/11/30 04:03:56;;;;;;;4.92;3.22;;;;;;;-0.56;83.58;99623.92;1743445;82;21063;-88
2021/11/30 04:06:23;;;;;;;4.47;2.95;;;;;;;-0.59;83.49;99622.47;1743670;82;21074;-88
2021/11/30 04:08:50;;;;;;;5.90;2.92;;;;;;;-0.61;83.62;99622.80;1743331;81;21038;-87
2021/11/30 04:11:19;;;;;;;6.97;3.87;;;;;;;-0.60;83.68;99625.47;1743368;82;22430;-88
2021/11/30 04:13:46;;;;;;;4.80;3.42;;;;;;;-0.57;83.71;99629.02;1743299;81;21561;-88
2021/11/30 04:16:13;;;;;;;6.37;3.33;;;;;;;-0.59;83.59;99632.39;1743206;82;21103;-88
2021/11/30 04:18:40;;;;;;;8.00;3.50;;;;;;;-0.56;83.78;99628.19;1743048;82;21067;-87
2021/11/30 04:21:06;;;;;;;10.78;3.15;;;;;;;-0.49;83.94;99618.64;1742886;82;21060;-87
2021/11/30 04:23:33;;;;;;;4.20;3.12;;;;;;;-0.43;83.81;99613.81;1742780;82;21749;-88
2021/11/30 04:26:00;;;;;;;7.22;3.37;;;;;;;-0.44;83.60;99612.02;1742675;82;21063;-88
2021/11/30 04:28:27;;;;;;;5.95;3.52;;;;;;;-0.48;83.47;99607.52;1742682;82;21071;-87
2021/11/30 04:30:53;;;;;;;7.42;3.37;;;;;;;-0.52;83.41;99610.76;1742628;82;21547;-88
2021/11/30 04:33:20;;;;;;;6.12;3.22;;;;;;;-0.55;83.42;99601.55;1742824;82;21034;-87
2021/11/30 04:35:47;;;;;;;11.33;3.37;;;;;;;-0.61;83.30;99600.83;1742962;82;21704;-88
2021/11/30 04:38:13;;;;;;;15.08;5.30;;;;;;;-0.67;83.22;99609.16;1742996;82;20999;-88
2021/11/30 04:40:40;;;;;;;6.35;3.77;;;;;;;-0.71;83.27;99610.19;1743143;82;21035;-88
2021/11/30 04:43:08;;;;;;;7.67;3.55;;;;;;;-0.73;83.37;99595.02;1743224;82;21561;-88
2021/11/30 04:48:13;;;;;;;18.82;5.75;;;;;;;-0.81;83.29;99586.50;1743010;82;21712;-86
2021/11/30 04:50:42;;;;;;;104.72;31.37;;;;;;;-0.83;83.34;99580.33;1743165;82;21082;-87
2021/11/30 04:53:07;;;;;;;129.38;39.53;;;;;;;-0.85;83.43;99585.83;1742819;82;21031;-86
2021/11/30 04:55:34;;;;;;;142.57;47.78;;;;;;;-0.86;83.38;99581.91;1743188;82;21059;-89
2021/11/30 04:58:02;;;;;;;161.28;55.35;;;;;;;-0.89;83.34;99580.44;1752986;81;21028;-85
2021/11/30 05:00:29;;;;;;;98.52;33.88;;;;;;;-0.93;83.31;99576.81;1754430;81;21789;-85
2021/11/30 05:02:55;;;;;;;57.65;21.42;;;;;;;-0.97;83.31;99574.88;1753990;81;21087;-88
2021/11/30 05:05:22;;;;;;;40.73;12.45;;;;;;;-1.01;83.34;99571.66;1754459;81;21056;-86
2021/11/30 05:07:49;;;;;;;41.92;13.60;;;;;;;-1.07;83.31;99570.94;1754223;81;21586;-84
2021/11/30 05:10:18;;;;;;;46.90;14.28;;;;;;;-1.08;83.44;99580.77;1754283;81;21068;-87
2021/11/30 05:12:43;;;;;;;37.53;12.95;;;;;;;-1.11;83.45;99574.55;1754305;81;22528;-84
2021/11/30 05:15:10;;;;;;;22.10;7.00;;;;;;;-1.15;83.56;99569.63;1754245;81;20990;-85
2021/11/30 05:17:37;;;;;;;44.13;13.25;;;;;;;-1.17;83.62;99563.09;1753878;81;21111;-86
2021/11/30 05:20:04;;;;;;;33.60;9.68;;;;;;;-1.18;83.67;99560.45;1753088;81;21031;-85
2021/11/30 05:22:31;;;;;;;27.32;8.70;;;;;;;-1.20;83.72;99555.62;1753053;81;20989;-85
2021/11/30 05:24:58;;;;;;;19.95;7.97;;;;;;;-1.22;83.80;99549.45;1753285;81;21850;-87
2021/11/30 05:27:26;;;;;;;20.02;7.83;;;;;;;-1.22;83.88;99549.45;1754022;81;21049;-88
2021/11/30 05:29:52;;;;;;;9.93;5.20;;;;;;;-1.24;83.93;99548.48;1754307;81;21076;-88
2021/11/30 05:32:19;;;;;;;8.33;4.20;;;;;;;-1.26;83.91;99548.81;1754620;81;21119;-91
2021/11/30 05:34:46;;;;;;;7.92;4.03;;;;;;;-1.27;83.97;99547.06;1754895;81;21020;-87
2021/11/30 05:37:13;;;;;;;9.75;4.40;;;;;;;-1.28;84.07;99534.53;1755017;81;21692;-89
2021/11/30 05:39:40;;;;;;;16.07;5.70;;;;;;;-1.30;84.01;99529.70;1754689;81;21135;-89
2021/11/30 05:42:07;;;;;;;13.58;5.20;;;;;;;-1.29;84.10;99532.77;1754959;81;21112;-90
2021/11/30 05:44:35;;;;;;;13.78;5.47;;;;;;;-1.28;84.19;99532.36;1754766;81;21067;-86
2021/11/30 05:47:01;;;;;;;10.43;4.97;;;;;;;-1.26;84.33;99530.75;1754643;81;21017;-86
2021/11/30 05:49:28;;;;;;;6.47;3.80;;;;;;;-1.24;84.30;99526.55;1754655;81;22565;-86
2021/11/30 05:51:54;;;;;;;9.85;4.45;;;;;;;-1.22;84.33;99515.52;1754760;81;21068;-86
2021/11/30 05:54:21;;;;;;;8.73;4.00;;;;;;;-1.19;84.43;99504.03;1754204;81;21037;-86
2021/11/30 05:56:47;;;;;;;7.97;4.28;;;;;;;-1.12;84.47;99504.37;1753943;81;21028;-85
2021/11/30 05:59:16;;;;;;;5.72;3.25;;;;;;;-1.06;84.54;99499.51;1754204;81;21083;-84
2021/11/30 06:01:42;;;;;;;5.70;3.10;;;;;;;-1.01;84.58;99495.06;1754334;81;23165;-87
2021/11/30 06:04:09;;;;;;;6.08;3.60;;;;;;;-0.91;84.62;99487.36;1754056;81;21076;-85
2021/11/30 06:06:37;;;;;;;5.25;3.42;;;;;;;-0.82;84.66;99483.07;1754444;81;22226;-86
2021/11/30 06:09:07;;;;;;;5.55;3.65;;;;;;;-0.73;84.68;99481.33;1754313;81;21589;-85
2021/11/30 06:11:33;;;;;;;8.20;5.25;;;;;;;-0.63;84.68;99477.11;1754652;81;21051;-87
2021/11/30 06:14:00;;;;;;;15.18;9.55;;;;;;;-0.54;84.62;99473.69;1754677;81;22423;-86
2021/11/30 06:16:27;;;;;;;16.02;9.13;;;;;;;-0.45;84.62;99467.67;1754478;81;21642;-86
2021/11/30 06:18:54;;;;;;;21.27;10.98;;;;;;;-0.36;84.51;99460.73;1754373;81;21694;-86
2021/11/30 06:21:20;;;;;;;23.80;12.35;;;;;;;-0.30;84.43;99455.88;1754545;81;21009;-86
2021/11/30 06:23:48;;;;;;;45.28;21.90;;;;;;;-0.25;84.39;99456.95;1754595;81;21083;-89
2021/11/30 06:26:15;;;;;;;21.75;11.88;;;;;;;-0.20;84.23;99455.48;1766000;80;21839;-87
2021/11/30 06:28:42;;;;;;;9.63;5.58;;;;;;;-0.16;84.18;99454.34;1713015;80;21600;-89
2021/11/30 06:31:09;;;;;;;9.88;6.47;;;;;;;-0.11;84.17;99449.86;1744333;82;21038;-86
2021/11/30 06:33:35;;;;;;;10.43;6.75;;;;;;;-0.06;84.11;99456.53;1757918;81;21055;-89
2021/11/30 06:36:02;;;;;;;8.18;5.40;;;;;;;-0.03;84.04;99447.21;1758049;81;21055;-87
2021/11/30 06:38:29;;;;;;;9.75;5.87;;;;;;;0.01;83.97;99449.53;1758237;81;21789;-89
2021/11/30 06:40:56;;;;;;;10.45;7.17;;;;;;;0.05;83.87;99453.16;1758006;81;21040;-88
2021/11/30 06:43:22;;;;;;;18.60;12.82;;;;;;;0.08;83.89;99447.71;1757906;81;21052;-88
2021/11/30 06:45:49;;;;;;;9.13;6.45;;;;;;;0.13;84.00;99444.03;1757995;81;21005;-88
2021/11/30 06:48:17;;;;;;;9.15;6.40;;;;;;;0.19;83.91;99440.03;1758136;81;21135;-88
2021/11/30 06:50:44;;;;;;;10.53;6.05;;;;;;;0.25;83.88;99437.25;1757682;81;21820;-88
2021/11/30 06:53:11;;;;;;;11.65;8.68;;;;;;;0.28;83.77;99430.89;1757825;81;21008;-88
2021/11/30 06:55:38;;;;;;;8.40;6.00;;;;;;;0.32;83.67;99431.50;1757871;81;21613;-88
2021/11/30 06:58:04;;;;;;;8.33;5.42;;;;;;;0.37;83.80;99428.30;1760094;81;21060;-88
2021/11/30 07:00:31;;;;;;;12.13;6.60;;;;;;;0.45;83.87;99420.91;1761462;81;21111;-88
2021/11/30 07:02:58;;;;;;;13.93;7.42;;;;;;;0.53;83.88;99422.11;1761097;81;21785;-88
2021/11/30 07:05:29;;;;;;;8.45;5.30;;;;;;;0.61;83.82;99412.08;1760784;81;21051;-87
2021/11/30 07:08:00;;;;;;;11.43;7.15;;;;;;;0.70;83.84;99411.60;1760742;81;21562;-87
2021/11/30 07:10:43;;;;;;;24.60;13.70;;;;;;;0.76;83.89;99402.78;1759903;81;22240;-87
2021/11/30 07:13:13;;;;;;;21.42;14.30;;;;;;;0.85;83.86;99397.99;1738127;81;21070;-88
2021/11/30 07:15:31;;;;;;;26.52;17.25;;;;;;;0.92;83.84;99389.66;1759728;81;21782;-88
2021/11/30 07:17:58;;;;;;;18.65;12.25;;;;;;;1.02;83.76;99390.05;1760963;81;21013;-88
2021/11/30 07:20:25;;;;;;;11.35;7.60;;;;;;;1.07;83.65;99380.34;1761110;81;21133;-88
2021/11/30 07:22:56;;;;;;;14.10;9.85;;;;;;;1.13;83.46;99373.23;1761099;81;21573;-89
2021/11/30 07:25:20;;;;;;;11.48;7.95;;;;;;;1.15;83.28;99362.09;1760685;81;21553;-88
2021/11/30 07:27:47;;;;;;;14.70;10.40;;;;;;;1.18;83.19;99361.73;1761259;81;21822;-87
2021/11/30 07:30:13;;;;;;;13.98;10.05;;;;;;;1.17;83.09;99355.67;1761127;81;21052;-87
2021/11/30 07:32:40;;;;;;;15.30;10.88;;;;;;;1.18;82.97;99339.70;1761276;81;21553;-88
2021/11/30 07:35:07;;;;;;;13.48;10.45;;;;;;;1.18;82.92;99333.22;1761277;81;21079;-87
2021/11/30 07:37:34;;;;;;;12.25;9.93;;;;;;;1.22;82.89;99336.02;1761103;81;21044;-88
2021/11/30 07:40:00;;;;;;;11.25;8.88;;;;;;;1.25;82.63;99331.35;1761147;81;21750;-90
2021/11/30 07:42:30;;;;;;;9.53;8.43;;;;;;;1.22;82.33;99323.44;1761049;81;21569;-90
2021/11/30 07:44:55;;;;;;;9.40;8.50;;;;;;;1.16;82.12;99317.61;1760870;81;21114;-87
2021/11/30 07:47:22;;;;;;;8.43;5.95;;;;;;;1.12;82.07;99314.01;1761213;81;21020;-87
2021/11/30 07:49:49;;;;;;;15.38;6.92;;;;;;;1.11;82.10;99313.98;1761220;81;21617;-87
2021/11/30 07:52:15;;;;;;;11.22;8.15;;;;;;;1.09;82.04;99313.00;1761289;81;21742;-87
2021/11/30 07:54:42;;;;;;;24.50;16.90;;;;;;;1.02;81.87;99308.42;1761081;81;21108;-87
2021/11/30 07:57:09;;;;;;;20.92;14.23;;;;;;;0.96;81.86;99306.05;1761021;81;21173;-87
2021/11/30 07:59:36;;;;;;;45.28;27.35;;;;;;;0.93;81.86;99308.51;1761425;81;21282;-87
2021/11/30 08:02:03;;;;;;;31.70;17.90;;;;;;;0.86;81.72;99299.14;1761207;81;21040;-87
2021/11/30 08:04:30;;;;;;;31.55;17.20;;;;;;;0.79;81.87;99291.55;1761287;81;22578;-87
2021/11/30 08:06:57;;;;;;;47.88;26.82;;;;;;;0.93;82.11;99299.86;1760888;81;21084;-87
2021/11/30 08:09:23;;;;;;;25.60;14.75;;;;;;;1.03;82.25;99294.20;1761279;81;21064;-88
2021/11/30 08:11:50;;;;;;;24.10;14.18;;;;;;;1.12;82.26;99295.87;1761218;81;21480;-88
2021/11/30 08:14:16;;;;;;;60.12;30.02;;;;;;;1.22;82.25;99285.47;1761363;81;21047;-86
2021/11/30 08:16:43;;;;;;;24.63;15.80;;;;;;;1.32;82.23;99275.03;1761223;81;21820;-87
2021/11/30 08:19:10;;;;;;;16.37;10.13;;;;;;;1.42;82.05;99272.38;1761096;81;21079;-87
2021/11/30 08:21:37;;;;;;;25.55;15.83;;;;;;;1.48;81.91;99260.92;1761202;81;21492;-87
2021/11/30 08:24:04;;;;;;;25.43;18.35;;;;;;;1.52;81.82;99254.63;1761038;81;21024;-87
2021/11/30 08:26:30;;;;;;;21.20;13.90;;;;;;;1.61;81.72;99250.17;1761087;81;21078;-87
2021/11/30 08:28:57;;;;;;;15.40;12.03;;;;;;;1.70;81.71;99238.84;1760871;81;21909;-87
2021/11/30 08:31:23;;;;;;;17.25;11.45;;;;;;;1.80;81.61;99230.96;1760725;81;21071;-87
2021/11/30 08:33:51;;;;;;;47.85;31.93;;;;;;;1.88;81.59;99227.38;1760848;81;21537;-87
2021/11/30 08:36:18;;;;;;;26.75;18.57;;;;;;;1.93;81.44;99213.73;1760916;81;21155;-87
2021/11/30 08:38:44;;;;;;;18.57;11.78;;;;;;;1.98;81.26;99215.59;1761042;81;21044;-87
2021/11/30 08:41:11;;;;;;;14.25;10.90;;;;;;;1.95;81.09;99196.89;1760832;81;21742;-88
2021/11/30 08:43:38;;;;;;;19.60;13.03;;;;;;;1.95;81.06;99196.89;1761020;81;21012;-87
2021/11/30 08:46:04;;;;;;;20.60;15.68;;;;;;;1.97;80.98;99188.77;1761073;81;21071;-87
2021/11/30 08:48:31;;;;;;;26.35;18.07;;;;;;;2.01;80.97;99183.23;1761305;81;21016;-87
2021/11/30 08:50:59;;;;;;;19.15;14.07;;;;;;;2.06;80.96;99183.86;1761065;81;21526;-88
2021/11/30 08:53:26;;;;;;;17.25;13.43;;;;;;;2.14;80.91;99181.55;1761289;81;21813;-87
2021/11/30 08:55:52;;;;;;;15.00;11.10;;;;;;;2.15;80.68;99172.91;1760909;81;21000;-88
2021/11/30 08:58:19;;;;;;;25.88;15.85;;;;;;;2.19;80.58;99163.52;1760887;81;21095;-87
2021/11/30 09:00:46;;;;;;;14.55;10.35;;;;;;;2.22;80.54;99158.02;1761130;81;21020;-88
2021/11/30 09:03:12;;;;;;;13.85;9.18;;;;;;;2.30;80.58;99146.58;1761031;81;21059;-88
2021/11/30 09:05:39;;;;;;;15.78;10.98;;;;;;;2.36;80.37;99145.89;1761345;81;21766;-88
2021/11/30 09:08:06;;;;;;;10.82;8.33;;;;;;;2.37;80.23;99143.34;1760839;81;21633;-87
2021/11/30 09:10:32;;;;;;;11.28;8.78;;;;;;;2.38;80.09;99141.63;1761287;81;21024;-87
2021/11/30 09:12:59;;;;;;;11.43;8.83;;;;;;;2.34;79.95;99134.15;1761170;81;21036;-87
2021/11/30 09:15:26;;;;;;;14.90;11.63;;;;;;;2.29;79.77;99129.22;1761346;81;21087;-88
2021/11/30 09:17:53;;;;;;;13.08;9.55;;;;;;;2.24;79.78;99127.78;1761341;81;21836;-87
2021/11/30 09:20:20;;;;;;;16.73;12.37;;;;;;;2.22;79.74;99124.69;1761209;81;21016;-87
2021/11/30 09:22:49;;;;;;;17.85;11.48;;;;;;;2.16;79.71;99116.68;1761022;81;21514;-88
2021/11/30 09:25:15;;;;;;;19.57;12.82;;;;;;;2.18;79.77;99119.81;1760921;81;21118;-87
2021/11/30 09:27:43;;;;;;;19.00;14.20;;;;;;;2.20;79.80;99111.66;1760908;81;21122;-87
2021/11/30 09:30:11;;;;;;;17.90;10.30;;;;;;;2.23;79.83;99108.27;1760315;81;21749;-87
2021/11/30 09:32:40;;;;;;;40.80;27.35;;;;;;;2.24;79.77;99105.72;1760131;81;21087;-87
2021/11/30 09:35:10;;;;;;;25.17;17.80;;;;;;;2.25;79.68;99094.91;1759930;81;21056;-88
2021/11/30 09:37:39;;;;;;;19.05;13.45;;;;;;;2.22;79.57;99091.81;1759990;81;21079;-87
2021/11/30 09:40:13;;;;;;;19.05;14.45;;;;;;;2.18;79.43;99088.66;1760051;81;21151;-88
2021/11/30 09:42:40;;;;;;;21.57;16.73;;;;;;;2.12;79.35;99081.95;1760358;81;21224;-88
2021/11/30 09:45:10;;;;;;;25.52;17.20;;;;;;;2.06;79.39;99076.58;1760484;81;21037;-87
2021/11/30 09:47:36;;;;;;;17.50;13.93;;;;;;;2.02;79.45;99070.83;1760765;81;21047;-87
2021/11/30 09:50:04;;;;;;;24.43;17.90;;;;;;;1.73;79.62;99009.39;1761082;81;21051;-87
2021/11/30 09:52:31;;;;;;;21.95;14.23;;;;;;;2.04;79.72;99054.47;1761228;81;21103;-87
2021/11/30 09:54:57;;;;;;;22.17;16.12;;;;;;;2.08;79.74;99038.58;1761031;81;22572;-87
2021/11/30 09:57:24;;;;;;;18.30;13.35;;;;;;;2.10;79.93;99032.63;1761145;81;21222;-87
2021/11/30 09:59:51;;;;;;;18.82;12.98;;;;;;;2.16;79.92;99028.42;1757823;81;21621;-87
2021/11/30 10:02:17;;;;;;;18.62;12.85;;;;;;;2.16;79.89;99027.13;1758127;81;21047;-88
2021/11/30 10:04:44;;;;;;;15.70;12.23;;;;;;;2.19;80.05;99015.55;1757977;81;21064;-88
2021/11/30 10:07:10;;;;;;;17.60;12.33;;;;;;;2.24;80.10;99001.01;1758021;81;21733;-87
2021/11/30 10:09:37;;;;;;;17.75;12.30;;;;;;;2.32;80.15;98996.91;1758034;81;21176;-88
2021/11/30 10:12:07;;;;;;;15.60;12.00;;;;;;;2.41;80.25;98990.69;1758064;81;21079;-88
2021/11/30 10:14:37;;;;;;;19.05;13.72;;;;;;;2.50;80.20;98977.98;1757811;81;21103;-88
2021/11/30 10:17:17;;;;;;;15.43;11.65;;;;;;;2.58;80.15;98965.20;1757183;81;21071;-88
2021/11/30 10:19:58;;;;;;;17.62;12.25;;;;;;;2.63;80.08;98960.16;1757962;81;22580;-87
2021/11/30 10:22:48;;;;;;;16.42;12.50;;;;;;;2.62;79.86;98943.67;1757920;81;21044;-88
2021/11/30 10:25:27;;;;;;;23.02;14.90;;;;;;;2.60;79.78;98936.68;1757929;81;21044;-88
2021/11/30 10:27:58;;;;;;;21.82;15.32;;;;;;;2.62;79.91;98926.78;1757979;81;21096;-88
2021/11/30 10:30:31;;;;;;;26.20;16.85;;;;;;;2.59;79.79;98908.93;1758121;81;21040;-88
2021/11/30 10:33:01;;;;;;;28.98;17.25;;;;;;;2.60;79.88;98898.59;1758014;81;21676;-88
2021/11/30 10:35:28;;;;;;;28.92;16.97;;;;;;;2.62;79.85;98884.35;1757808;81;21507;-87
2021/11/30 10:37:56;;;;;;;29.30;16.40;;;;;;;2.62;79.86;98874.83;1757947;81;21067;-88
2021/11/30 10:40:26;;;;;;;26.62;15.88;;;;;;;2.63;79.89;98862.31;1710552;81;21084;-88
2021/11/30 10:42:58;;;;;;;24.72;15.05;;;;;;;2.64;79.90;98851.07;1758214;81;21072;-88
2021/11/30 10:45:43;;;;;;;22.67;15.55;;;;;;;2.65;79.85;98846.34;1758111;81;22608;-88
2021/11/30 10:48:19;;;;;;;24.32;16.02;;;;;;;2.65;79.84;98838.98;1757827;81;21040;-88
2021/11/30 10:50:52;;;;;;;22.15;15.20;;;;;;;2.66;79.91;98826.44;1758071;81;21028;-88
2021/11/30 10:53:25;;;;;;;21.87;15.40;;;;;;;2.60;79.77;98809.41;1757624;81;21601;-88
2021/11/30 10:56:01;;;;;;;21.20;16.23;;;;;;;2.58;79.82;98803.30;1758485;81;21020;-88
2021/11/30 10:58:33;;;;;;;29.15;20.43;;;;;;;2.53;79.87;98794.98;1758654;81;21672;-88
2021/11/30 11:01:01;;;;;;;29.98;20.97;;;;;;;2.46;79.79;98778.77;1760773;81;21302;-88
2021/11/30 11:03:27;;;;;;;30.88;22.52;;;;;;;2.45;80.00;98761.42;1764444;80;21601;-88
2021/11/30 11:06:33;;;;;;;29.77;22.50;;;;;;;2.43;80.03;98761.80;1761182;81;21110;-88
2021/11/30 11:08:42;;;;;;;31.75;22.77;;;;;;;2.41;80.06;98753.10;1734690;81;21035;-88
2021/11/30 11:11:09;;;;;;;34.70;24.15;;;;;;;2.41;80.17;98741.42;1737112;82;21802;-87
2021/11/30 11:13:38;;;;;;;29.65;21.12;;;;;;;2.42;80.19;98734.50;1761161;81;20993;-88
2021/11/30 11:16:07;;;;;;;25.48;18.20;;;;;;;2.40;80.16;98726.66;1760996;81;21064;-88
2021/11/30 11:18:36;;;;;;;27.35;18.00;;;;;;;2.39;80.07;98722.76;1743668;82;21200;-87
2021/11/30 11:21:19;;;;;;;28.83;17.27;;;;;;;2.31;80.08;98710.45;1760795;81;21087;-87
2021/11/30 11:24:09;;;;;;;26.30;16.35;;;;;;;2.26;80.16;98705.56;1761231;81;21741;-87
2021/11/30 11:26:46;;;;;;;29.95;18.12;;;;;;;2.25;80.28;98693.84;1748695;81;21026;-88
2021/11/30 11:29:16;;;;;;;28.70;17.07;;;;;;;2.23;80.27;98690.33;1761221;81;21071;-88
2021/11/30 11:31:53;;;;;;;29.32;18.05;;;;;;;2.22;80.41;98674.31;1760933;81;21570;-87
2021/11/30 11:34:22;;;;;;;30.40;16.85;;;;;;;2.08;80.40;98651.49;1759457;81;21552;-88
2021/11/30 11:36:51;;;;;;;30.32;18.17;;;;;;;2.16;80.42;98653.38;1761020;81;21697;-88
2021/11/30 11:39:18;;;;;;;27.45;18.27;;;;;;;2.12;80.52;98641.64;1760852;81;21016;-87
2021/11/30 11:41:54;;;;;;;28.62;17.65;;;;;;;2.11;80.56;98635.98;1761231;81;21043;-88